createdAt,value
2018-10-05T00:01:21.285Z,10.60
2018-10-05T00:03:50.398Z,10.50
2018-10-05T00:06:19.590Z,10.60
2018-10-05T00:08:48.753Z,10.60
2018-10-05T00:11:17.921Z,10.60
2018-10-05T00:13:47.173Z,10.50
2018-10-05T00:16:16.350Z,10.60
2018-10-05T00:18:45.520Z,10.50
2018-10-05T00:21:15.004Z,10.40
2018-10-05T00:23:44.125Z,10.30
2018-10-05T00:26:13.343Z,10.30
2018-10-05T00:28:42.495Z,10.30
2018-10-05T00:31:11.647Z,10.30
2018-10-05T00:33:42.215Z,10.30
2018-10-05T00:36:11.854Z,10.30
2018-10-05T00:38:41.009Z,10.30
2018-10-05T00:41:10.194Z,10.30
2018-10-05T00:43:39.418Z,10.20
2018-10-05T00:46:08.651Z,10.30
2018-10-05T00:48:37.996Z,10.20
2018-10-05T00:51:07.377Z,10.20
2018-10-05T00:53:36.747Z,10.10
2018-10-05T00:56:05.815Z,10.10
2018-10-05T00:58:35.893Z,10.00
2018-10-05T01:01:05.097Z,10.00
2018-10-05T01:03:34.315Z,10.10
2018-10-05T01:06:03.555Z,10.10
2018-10-05T01:08:32.659Z,10.20
2018-10-05T01:11:01.783Z,10.10
2018-10-05T01:13:30.985Z,10.10
2018-10-05T01:16:00.221Z,10.00
2018-10-05T01:18:29.497Z,10.00
2018-10-05T01:20:58.711Z,10.00
2018-10-05T01:23:28.237Z,10.00
2018-10-05T01:25:57.347Z,10.00
2018-10-05T01:28:26.693Z,9.90
2018-10-05T01:30:55.831Z,9.70
2018-10-05T01:33:24.961Z,9.80
2018-10-05T01:35:54.565Z,9.80
2018-10-05T01:38:23.742Z,9.80
2018-10-05T01:40:53.023Z,9.70
2018-10-05T01:43:22.593Z,9.70
2018-10-05T01:45:51.810Z,9.70
2018-10-05T01:48:20.946Z,9.70
2018-10-05T01:50:50.206Z,9.80
2018-10-05T01:53:19.433Z,9.90
2018-10-05T01:55:48.706Z,10.00
2018-10-05T01:58:18.009Z,9.90
2018-10-05T02:00:47.286Z,9.80
2018-10-05T02:03:16.458Z,9.80
2018-10-05T02:05:46.218Z,9.70
2018-10-05T02:08:15.373Z,9.70
2018-10-05T02:10:44.755Z,9.50
2018-10-05T02:13:13.862Z,9.40
2018-10-05T02:15:43.038Z,9.40
2018-10-05T02:18:12.168Z,9.40
2018-10-05T02:20:41.263Z,9.50
2018-10-05T02:23:10.734Z,9.40
2018-10-05T02:25:40.334Z,9.40
2018-10-05T02:28:09.430Z,9.40
2018-10-05T02:30:38.994Z,9.40
2018-10-05T02:33:08.144Z,9.50
2018-10-05T02:35:37.222Z,9.50
2018-10-05T02:38:07.052Z,9.50
2018-10-05T02:40:37.165Z,9.50
2018-10-05T02:43:06.382Z,9.50
2018-10-05T02:45:35.510Z,9.40
2018-10-05T02:48:04.640Z,9.40
2018-10-05T02:50:33.809Z,9.40
2018-10-05T02:53:03.327Z,9.30
2018-10-05T02:55:32.537Z,9.40
2018-10-05T02:58:01.667Z,9.40
2018-10-05T03:00:41.889Z,9.50
2018-10-05T03:03:11.124Z,9.30
2018-10-05T03:05:46.161Z,9.30
2018-10-05T03:08:15.524Z,9.20
2018-10-05T03:10:44.753Z,9.20
2018-10-05T03:13:13.951Z,9.20
2018-10-05T03:15:43.145Z,9.20
2018-10-05T03:18:12.337Z,9.10
2018-10-05T03:20:41.600Z,9.10
2018-10-05T03:23:10.809Z,9.10
2018-10-05T03:25:39.955Z,9.10
2018-10-05T03:28:09.081Z,9.10
2018-10-05T03:30:38.195Z,9.00
2018-10-05T03:33:07.333Z,9.10
2018-10-05T03:35:36.525Z,9.10
2018-10-05T03:38:05.697Z,9.10
2018-10-05T03:40:34.985Z,9.20
2018-10-05T03:43:04.565Z,9.00
2018-10-05T03:45:33.667Z,9.10
2018-10-05T03:48:02.849Z,9.00
2018-10-05T03:50:32.109Z,9.00
2018-10-05T03:53:01.433Z,9.10
2018-10-05T03:55:30.634Z,9.20
2018-10-05T03:57:59.821Z,9.20
2018-10-05T04:00:29.042Z,9.10
2018-10-05T04:02:58.229Z,8.90
2018-10-05T04:05:28.357Z,8.90
2018-10-05T04:07:57.467Z,8.90
2018-10-05T04:10:26.728Z,8.90
2018-10-05T04:12:55.987Z,8.90
2018-10-05T04:15:25.329Z,8.90
2018-10-05T04:17:54.491Z,8.80
2018-10-05T04:20:24.549Z,8.90
2018-10-05T04:22:53.710Z,8.90
2018-10-05T04:25:22.981Z,8.80
2018-10-05T04:27:52.157Z,8.80
2018-10-05T04:30:21.382Z,8.80
2018-10-05T04:32:50.654Z,8.70
2018-10-05T04:35:19.872Z,8.60
2018-10-05T04:37:49.166Z,8.60
2018-10-05T04:40:18.371Z,8.50
2018-10-05T04:42:47.801Z,8.40
2018-10-05T04:45:17.046Z,8.40
2018-10-05T04:47:46.441Z,8.30
2018-10-05T04:50:15.780Z,8.40
2018-10-05T04:52:45.510Z,8.40
2018-10-05T04:55:15.170Z,8.50
2018-10-05T04:57:44.365Z,8.50
2018-10-05T05:00:13.858Z,8.50
2018-10-05T05:02:42.973Z,8.40
2018-10-05T05:05:12.062Z,8.40
2018-10-05T05:07:41.126Z,8.40
2018-10-05T05:10:10.198Z,8.40
2018-10-05T05:12:39.248Z,8.40
2018-10-05T05:15:08.338Z,8.50
2018-10-05T05:17:37.438Z,8.50
2018-10-05T05:20:06.606Z,8.40
2018-10-05T05:22:35.674Z,8.20
2018-10-05T05:25:04.786Z,8.10
2018-10-05T05:27:34.003Z,8.00
2018-10-05T05:30:03.137Z,8.00
2018-10-05T05:32:32.904Z,8.00
2018-10-05T05:35:01.984Z,8.10
2018-10-05T05:37:31.071Z,8.10
2018-10-05T05:40:00.148Z,8.20
2018-10-05T05:42:29.205Z,8.40
2018-10-05T05:44:58.442Z,8.50
2018-10-05T05:47:27.500Z,8.30
2018-10-05T05:49:56.593Z,8.40
2018-10-05T05:52:25.706Z,8.40
2018-10-05T05:54:54.789Z,8.30
2018-10-05T05:57:23.838Z,8.10
2018-10-05T05:59:53.054Z,8.20
2018-10-05T06:02:22.139Z,8.20
2018-10-05T06:04:51.236Z,8.30
2018-10-05T06:07:20.334Z,8.50
2018-10-05T06:09:49.444Z,8.60
2018-10-05T06:12:18.566Z,8.70
2018-10-05T06:14:47.626Z,8.80
2018-10-05T06:17:17.692Z,8.80
2018-10-05T06:19:46.804Z,8.90
2018-10-05T06:22:16.123Z,8.90
2018-10-05T06:24:44.976Z,8.90
2018-10-05T06:27:14.103Z,8.90
2018-10-05T06:29:43.726Z,8.80
2018-10-05T06:32:12.794Z,8.80
2018-10-05T06:34:41.872Z,8.80
2018-10-05T06:37:11.070Z,8.80
2018-10-05T06:39:40.172Z,8.80
2018-10-05T06:42:09.467Z,9.00
2018-10-05T06:44:38.510Z,9.10
2018-10-05T06:47:08.122Z,9.30
2018-10-05T06:49:37.222Z,9.40
2018-10-05T06:52:06.338Z,9.60
2018-10-05T06:54:35.424Z,9.50
2018-10-05T06:57:05.510Z,9.60
2018-10-05T06:59:34.664Z,9.70
2018-10-05T07:02:03.787Z,9.70
2018-10-05T07:04:32.874Z,9.70
2018-10-05T07:07:01.936Z,9.70
2018-10-05T07:09:31.000Z,9.80
2018-10-05T07:12:00.070Z,10.00
2018-10-05T07:14:29.164Z,9.90
2018-10-05T07:16:58.277Z,10.00
2018-10-05T07:19:27.348Z,10.10
2018-10-05T07:21:56.472Z,9.90
2018-10-05T07:24:25.532Z,10.00
2018-10-05T07:26:54.606Z,10.20
2018-10-05T07:29:23.670Z,10.20
2018-10-05T07:31:52.754Z,10.30
2018-10-05T07:34:21.893Z,10.30
2018-10-05T07:36:51.035Z,10.30
2018-10-05T07:39:20.122Z,10.40
2018-10-05T07:41:49.283Z,10.40
2018-10-05T07:44:19.286Z,10.30
2018-10-05T07:46:48.365Z,10.30
2018-10-05T07:49:17.538Z,10.40
2018-10-05T07:51:46.676Z,10.10
2018-10-05T07:54:15.719Z,10.20
2018-10-05T07:56:44.774Z,10.00
2018-10-05T07:59:13.870Z,10.20
2018-10-05T08:01:42.971Z,10.30
2018-10-05T08:04:12.037Z,10.40
2018-10-05T08:06:41.120Z,10.50
2018-10-05T08:09:10.236Z,10.80
2018-10-05T08:11:39.332Z,11.00
2018-10-05T08:14:08.559Z,11.20
2018-10-05T08:16:37.649Z,11.20
2018-10-05T08:19:06.740Z,11.30
2018-10-05T08:21:35.988Z,11.30
2018-10-05T08:24:05.015Z,11.40
2018-10-05T08:26:34.103Z,11.40
2018-10-05T08:29:03.190Z,11.50
2018-10-05T08:31:32.288Z,11.50
2018-10-05T08:34:01.361Z,11.40
2018-10-05T08:36:30.406Z,11.40
2018-10-05T08:38:59.520Z,11.40
2018-10-05T08:41:28.590Z,11.60
2018-10-05T08:43:57.674Z,11.60
2018-10-05T08:46:26.801Z,11.70
2018-10-05T08:48:55.864Z,11.80
2018-10-05T08:51:25.110Z,12.00
2018-10-05T08:53:54.203Z,12.10
2018-10-05T08:56:23.310Z,12.10
2018-10-05T08:58:52.386Z,12.10
2018-10-05T09:01:21.562Z,12.00
2018-10-05T09:03:50.618Z,12.00
2018-10-05T09:06:19.722Z,11.90
2018-10-05T09:08:48.814Z,12.20
2018-10-05T09:11:17.934Z,12.20
2018-10-05T09:13:47.138Z,12.60
2018-10-05T09:16:16.285Z,13.00
2018-10-05T09:18:45.354Z,13.40
2018-10-05T09:21:14.424Z,13.50
2018-10-05T09:23:43.506Z,13.40
2018-10-05T09:26:12.560Z,13.60
2018-10-05T09:28:41.640Z,13.70
2018-10-05T09:31:10.758Z,13.80
2018-10-05T09:33:39.848Z,14.00
2018-10-05T09:36:09.006Z,14.00
2018-10-05T09:38:38.381Z,14.40
2018-10-05T09:41:07.716Z,14.50
2018-10-05T09:43:36.841Z,14.60
2018-10-05T09:46:05.913Z,14.60
2018-10-05T09:48:35.028Z,14.70
2018-10-05T09:51:04.135Z,15.00
2018-10-05T09:53:33.490Z,15.00
2018-10-05T09:56:02.862Z,15.20
2018-10-05T09:58:32.029Z,15.40
2018-10-05T10:01:06.348Z,15.60
2018-10-05T10:03:36.646Z,15.80
2018-10-05T10:06:06.530Z,15.80
2018-10-05T10:08:35.613Z,16.00
2018-10-05T10:11:04.686Z,16.20
2018-10-05T10:13:33.888Z,16.60
2018-10-05T10:16:03.010Z,16.90
2018-10-05T10:18:32.118Z,17.10
2018-10-05T10:21:01.267Z,17.40
2018-10-05T10:23:30.318Z,17.40
2018-10-05T10:25:59.436Z,17.70
2018-10-05T10:28:28.632Z,18.20
2018-10-05T10:30:57.622Z,18.50
2018-10-05T10:33:26.750Z,18.60
2018-10-05T10:35:55.812Z,19.00
2018-10-05T10:38:24.939Z,19.10
2018-10-05T10:40:54.057Z,19.40
2018-10-05T10:43:23.145Z,19.80
2018-10-05T10:45:52.282Z,20.20
2018-10-05T10:48:21.461Z,20.30
2018-10-05T10:50:50.503Z,20.70
2018-10-05T10:53:19.612Z,21.80
2018-10-05T10:55:48.807Z,23.10
2018-10-05T10:58:17.895Z,24.40
2018-10-05T11:00:47.139Z,25.20
2018-10-05T11:03:16.109Z,26.60
2018-10-05T11:05:45.757Z,27.00
2018-10-05T11:08:14.904Z,27.80
2018-10-05T11:10:43.937Z,28.00
2018-10-05T11:13:13.004Z,28.00
2018-10-05T11:15:42.796Z,28.90
2018-10-05T11:18:11.888Z,28.80
2018-10-05T11:20:40.975Z,29.00
2018-10-05T11:23:10.114Z,29.50
2018-10-05T11:25:39.153Z,29.90
2018-10-05T11:28:08.227Z,30.40
2018-10-05T11:30:37.328Z,29.40
2018-10-05T11:33:06.496Z,28.70
2018-10-05T11:35:35.579Z,28.80
2018-10-05T11:38:05.311Z,29.30
2018-10-05T11:40:34.355Z,29.00
2018-10-05T11:43:03.447Z,28.80
2018-10-05T11:45:32.541Z,29.80
2018-10-05T11:48:01.680Z,29.80
2018-10-05T11:50:31.578Z,30.70
2018-10-05T11:53:00.687Z,31.10
2018-10-05T11:55:29.807Z,30.30
2018-10-05T11:57:59.214Z,30.40
2018-10-05T12:00:28.401Z,30.30
2018-10-05T12:02:57.461Z,31.00
2018-10-05T12:05:26.534Z,31.70
2018-10-05T12:07:55.659Z,31.50
2018-10-05T12:10:24.724Z,32.10
2018-10-05T12:12:53.789Z,32.00
2018-10-05T12:15:22.862Z,31.80
2018-10-05T12:17:51.947Z,32.70
2018-10-05T12:20:21.015Z,32.70
2018-10-05T12:22:50.227Z,32.30
2018-10-05T12:25:19.350Z,32.50
2018-10-05T12:27:48.438Z,33.10
2018-10-05T12:30:17.596Z,33.50
2018-10-05T12:32:46.644Z,32.90
2018-10-05T12:35:15.773Z,33.70
2018-10-05T12:37:44.867Z,33.50
2018-10-05T12:40:13.927Z,34.00
2018-10-05T12:42:43.011Z,34.40
2018-10-05T12:45:12.160Z,34.20
2018-10-05T12:47:41.253Z,33.40
2018-10-05T12:50:11.309Z,33.40
2018-10-05T12:52:40.361Z,33.40
2018-10-05T12:55:09.454Z,31.90
2018-10-05T12:57:38.555Z,31.20
2018-10-05T13:00:07.887Z,30.60
2018-10-05T13:02:36.948Z,30.10
2018-10-05T13:05:06.228Z,29.50
2018-10-05T13:07:35.978Z,29.50
2018-10-05T13:10:05.183Z,29.60
2018-10-05T13:12:35.213Z,29.70
2018-10-05T13:15:04.390Z,31.10
2018-10-05T13:17:33.475Z,32.00
2018-10-05T13:20:02.832Z,31.90
2018-10-05T13:22:32.004Z,32.90
2018-10-05T13:25:01.255Z,32.30
2018-10-05T13:27:31.301Z,31.50
2018-10-05T13:30:00.371Z,32.00
2018-10-05T13:32:29.464Z,33.30
2018-10-05T13:34:58.539Z,33.90
2018-10-05T13:37:27.696Z,35.30
2018-10-05T13:39:56.861Z,36.00
2018-10-05T13:42:25.909Z,36.20
2018-10-05T13:44:55.055Z,36.30
2018-10-05T13:47:24.189Z,37.30
2018-10-05T13:49:53.337Z,37.50
2018-10-05T13:52:22.633Z,37.60
2018-10-05T13:54:51.897Z,37.30
2018-10-05T13:57:21.083Z,37.20
2018-10-05T13:59:50.187Z,37.10
2018-10-05T14:02:19.533Z,36.90
2018-10-05T14:04:48.607Z,38.40
2018-10-05T14:07:17.751Z,39.00
2018-10-05T14:09:46.860Z,38.70
2018-10-05T14:12:15.967Z,38.00
2018-10-05T14:14:45.079Z,38.20
2018-10-05T14:17:14.199Z,38.30
2018-10-05T14:19:43.437Z,38.50
2018-10-05T14:22:12.510Z,37.30
2018-10-05T14:24:42.449Z,37.80
2018-10-05T14:27:11.697Z,37.70
2018-10-05T14:29:40.907Z,37.60
2018-10-05T14:32:10.210Z,37.20
2018-10-05T14:34:46.495Z,37.30
2018-10-05T14:37:15.638Z,37.50
2018-10-05T14:39:44.773Z,36.80
2018-10-05T14:42:13.843Z,36.40
2018-10-05T14:44:42.951Z,37.00
2018-10-05T14:47:12.063Z,37.80
2018-10-05T14:49:41.241Z,37.60
2018-10-05T14:52:11.259Z,37.20
2018-10-05T14:54:40.547Z,37.50
2018-10-05T14:57:09.683Z,36.90
2018-10-05T14:59:38.729Z,36.90
2018-10-05T15:02:07.825Z,36.70
2018-10-05T15:04:37.073Z,36.50
2018-10-05T15:07:06.261Z,36.40
2018-10-05T15:09:35.255Z,36.70
2018-10-05T15:12:04.971Z,36.40
2018-10-05T15:14:34.049Z,36.10
2018-10-05T15:17:06.931Z,36.80
2018-10-05T15:19:36.192Z,36.60
2018-10-05T15:22:05.287Z,36.70
2018-10-05T15:24:34.467Z,36.90
2018-10-05T15:27:03.513Z,37.50
2018-10-05T15:29:32.595Z,37.80
2018-10-05T15:32:01.693Z,37.20
2018-10-05T15:34:30.769Z,37.10
2018-10-05T15:36:59.913Z,36.10
2018-10-05T15:39:29.057Z,35.50
2018-10-05T15:41:58.145Z,34.20
2018-10-05T15:44:27.235Z,33.80
2018-10-05T15:47:00.583Z,33.70
2018-10-05T15:49:30.589Z,34.10
2018-10-05T15:52:00.014Z,34.30
2018-10-05T15:54:29.062Z,34.30
2018-10-05T15:56:58.153Z,34.50
2018-10-05T15:59:27.774Z,34.40
2018-10-05T16:01:57.197Z,33.90
2018-10-05T16:04:26.769Z,33.40
2018-10-05T16:06:56.147Z,32.90
2018-10-05T16:09:25.251Z,32.50
2018-10-05T16:11:54.525Z,31.90
2018-10-05T16:14:23.631Z,31.10
2018-10-05T16:16:52.725Z,30.40
2018-10-05T16:19:21.811Z,29.90
2018-10-05T16:21:50.911Z,29.50
2018-10-05T16:24:25.294Z,29.10
2018-10-05T16:26:54.418Z,28.50
2018-10-05T16:29:23.500Z,28.40
2018-10-05T16:31:52.623Z,28.00
2018-10-05T16:34:21.716Z,27.90
2018-10-05T16:36:50.822Z,27.80
2018-10-05T16:39:19.924Z,27.60
2018-10-05T16:41:49.022Z,27.70
2018-10-05T16:44:18.098Z,27.60
2018-10-05T16:46:47.184Z,27.00
2018-10-05T16:49:16.272Z,26.70
2018-10-05T16:51:45.333Z,26.20
2018-10-05T16:54:15.008Z,25.50
2018-10-05T16:56:44.142Z,24.70
2018-10-05T16:59:13.212Z,24.00
2018-10-05T17:01:42.360Z,23.30
2018-10-05T17:04:11.510Z,22.90
2018-10-05T17:06:40.576Z,22.50
2018-10-05T17:09:11.224Z,22.20
2018-10-05T17:11:41.565Z,22.10
2018-10-05T17:14:10.674Z,21.90
2018-10-05T17:16:39.789Z,21.80
2018-10-05T17:19:08.986Z,21.40
2018-10-05T17:21:38.259Z,21.30
2018-10-05T17:24:07.356Z,21.20
2018-10-05T17:26:36.465Z,20.80
2018-10-05T17:29:05.957Z,20.60
2018-10-05T17:31:34.974Z,20.40
2018-10-05T17:34:04.050Z,20.40
2018-10-05T17:36:33.654Z,20.50
2018-10-05T17:39:05.718Z,20.10
2018-10-05T17:41:34.805Z,19.90
2018-10-05T17:44:03.942Z,19.80
2018-10-05T17:46:33.019Z,19.80
2018-10-05T17:49:02.169Z,19.80
2018-10-05T17:51:31.363Z,19.70
2018-10-05T17:54:01.058Z,19.70
2018-10-05T17:56:30.155Z,19.50
2018-10-05T17:58:59.260Z,19.50
2018-10-05T18:01:28.369Z,19.40
2018-10-05T18:03:57.502Z,19.30
2018-10-05T18:06:27.531Z,19.10
2018-10-05T18:08:56.862Z,19.10
2018-10-05T18:11:26.619Z,18.90
2018-10-05T18:13:55.805Z,18.70
2018-10-05T18:16:25.054Z,18.40
2018-10-05T18:18:54.793Z,18.10
2018-10-05T18:21:23.970Z,17.90
2018-10-05T18:23:53.568Z,17.80
2018-10-05T18:26:22.747Z,17.70
2018-10-05T18:28:52.372Z,17.70
2018-10-05T18:31:21.570Z,17.60
2018-10-05T18:33:50.694Z,17.40
2018-10-05T18:36:19.954Z,17.50
2018-10-05T18:38:49.178Z,17.50
2018-10-05T18:41:18.406Z,17.50
2018-10-05T18:43:47.592Z,17.50
2018-10-05T18:46:16.806Z,17.40
2018-10-05T18:48:46.191Z,17.40
2018-10-05T18:51:15.553Z,17.50
2018-10-05T18:53:44.706Z,17.50
2018-10-05T18:56:24.937Z,17.50
2018-10-05T18:58:54.224Z,17.50
2018-10-05T19:01:23.462Z,17.40
2018-10-05T19:03:52.641Z,17.30
2018-10-05T19:06:22.743Z,17.40
2018-10-05T19:08:51.842Z,17.20
2018-10-05T19:11:21.008Z,17.20
2018-10-05T19:13:51.486Z,17.20
2018-10-05T19:16:21.182Z,17.00
2018-10-05T19:18:50.413Z,17.10
2018-10-05T19:21:20.210Z,16.90
2018-10-05T19:23:49.416Z,16.80
2018-10-05T19:26:18.907Z,16.70
2018-10-05T19:28:48.541Z,16.60
2018-10-05T19:31:17.771Z,16.70
2018-10-05T19:33:46.986Z,16.60
2018-10-05T19:36:16.407Z,16.60
2018-10-05T19:38:45.532Z,16.70
2018-10-05T19:41:15.116Z,16.60
2018-10-05T19:43:44.321Z,16.40
2018-10-05T19:46:13.779Z,16.30
2018-10-05T19:48:42.937Z,16.40
2018-10-05T19:51:12.106Z,16.20
2018-10-05T19:53:41.349Z,16.20
2018-10-05T19:56:10.468Z,16.00
2018-10-05T19:58:39.656Z,15.90
2018-10-05T20:01:08.912Z,16.00
2018-10-05T20:03:38.093Z,15.80
2018-10-05T20:06:07.343Z,15.80
2018-10-05T20:08:36.612Z,15.80
2018-10-05T20:11:06.938Z,15.80
2018-10-05T20:13:36.168Z,15.80
2018-10-05T20:16:05.514Z,15.70
2018-10-05T20:18:34.892Z,15.70
2018-10-05T20:21:04.054Z,15.60
2018-10-05T20:23:33.528Z,15.60
2018-10-05T20:26:04.412Z,15.60
2018-10-05T20:28:33.606Z,15.50
2018-10-05T20:31:02.996Z,15.50
2018-10-05T20:33:32.170Z,15.40
2018-10-05T20:36:01.333Z,15.30
2018-10-05T20:38:30.413Z,15.40
2018-10-05T20:41:00.595Z,15.50
2018-10-05T20:43:30.680Z,15.40
2018-10-05T20:45:59.916Z,15.30
2018-10-05T20:48:29.132Z,15.10
2018-10-05T20:50:58.370Z,15.10
2018-10-05T20:53:27.579Z,15.00
2018-10-05T20:55:56.883Z,15.10
2018-10-05T20:58:26.730Z,15.00
2018-10-05T21:00:55.978Z,14.90
2018-10-05T21:03:25.124Z,14.90
2018-10-05T21:05:54.824Z,15.00
2018-10-05T21:08:23.982Z,14.80
2018-10-05T21:10:53.061Z,14.70
2018-10-05T21:13:22.182Z,14.70
2018-10-05T21:15:51.308Z,14.60
2018-10-05T21:18:20.974Z,14.60
2018-10-05T21:20:50.127Z,14.40
2018-10-05T21:23:19.560Z,14.50
2018-10-05T21:25:48.719Z,14.40
2018-10-05T21:28:17.793Z,14.40
2018-10-05T21:30:46.870Z,14.40
2018-10-05T21:33:16.782Z,14.40
2018-10-05T21:35:45.882Z,14.50
2018-10-05T21:38:15.409Z,14.50
2018-10-05T21:40:44.606Z,14.40
2018-10-05T21:43:13.807Z,14.30
2018-10-05T21:45:43.020Z,14.10
2018-10-05T21:48:12.196Z,14.10
2018-10-05T21:50:41.425Z,14.10
2018-10-05T21:53:10.601Z,14.10
2018-10-05T21:55:39.785Z,14.20
2018-10-05T21:58:08.975Z,14.20
2018-10-05T22:00:41.035Z,14.10
2018-10-05T22:03:11.033Z,14.00
2018-10-05T22:05:40.247Z,14.00
2018-10-05T22:08:09.473Z,14.00
2018-10-05T22:10:38.688Z,14.00
2018-10-05T22:13:07.884Z,14.00
2018-10-05T22:15:37.162Z,14.00
2018-10-05T22:18:06.391Z,14.10
2018-10-05T22:20:36.011Z,14.10
2018-10-05T22:23:05.277Z,14.20
2018-10-05T22:25:34.466Z,14.20
2018-10-05T22:28:03.725Z,14.10
2018-10-05T22:30:32.961Z,14.10
2018-10-05T22:33:02.171Z,14.00
2018-10-05T22:35:32.444Z,13.90
2018-10-05T22:38:01.641Z,13.90
2018-10-05T22:40:30.882Z,14.00
2018-10-05T22:43:00.128Z,14.00
2018-10-05T22:45:29.213Z,13.70
2018-10-05T22:47:58.276Z,13.60
2018-10-05T22:50:27.484Z,13.70
2018-10-05T22:52:57.089Z,13.70
2018-10-05T22:55:26.178Z,13.70
2018-10-05T22:57:55.312Z,13.70
2018-10-05T23:00:24.448Z,13.70
2018-10-05T23:02:53.548Z,13.80
2018-10-05T23:05:22.758Z,13.60
2018-10-05T23:07:51.924Z,13.80
2018-10-05T23:10:21.047Z,13.80
2018-10-05T23:12:50.131Z,13.70
2018-10-05T23:15:19.299Z,13.70
2018-10-05T23:17:48.418Z,13.70
2018-10-05T23:20:17.497Z,13.60
2018-10-05T23:22:46.780Z,13.60
2018-10-05T23:25:15.833Z,13.70
2018-10-05T23:27:44.973Z,13.70
2018-10-05T23:30:14.049Z,13.40
2018-10-05T23:32:43.130Z,13.40
2018-10-05T23:35:12.208Z,13.30
2018-10-05T23:37:41.324Z,13.30
2018-10-05T23:40:10.415Z,13.40
2018-10-05T23:42:39.466Z,13.50
2018-10-05T23:45:08.586Z,13.40
2018-10-05T23:47:37.698Z,13.40
2018-10-05T23:50:06.858Z,13.40
2018-10-05T23:52:42.556Z,13.40
2018-10-05T23:55:11.629Z,13.50
2018-10-05T23:57:41.238Z,13.50
